Terminal Aerodrome Forecast
Issued by NWS

Home | Current Version | Previous Version | Graphics & Text | Print | Product List | Glossary On
Versions: 1 2 3 4 5 6 7 8 9 10 11 12 13 14 15 16 17 18 19 20 21
000
FTUS43 KLOT 260900 AAA
TAFDPA
TAF AMD
KDPA 260900Z 2609/2706 27012G18KT P6SM SCT100 BKN250
     FM261500 27018G30KT P6SM SCT050
     FM270000 27011G16KT P6SM SCT050=

USA.gov is the U.S. government's official web portal to all federal, state and local government web resources and services.